createdAt,value
2018-08-23T00:00:47.169Z,23.59
2018-08-23T00:03:21.542Z,23.67
2018-08-23T00:05:57.321Z,23.76
2018-08-23T00:08:26.465Z,23.69
2018-08-23T00:10:55.538Z,23.34
2018-08-23T00:13:24.895Z,23.25
2018-08-23T00:15:54.023Z,23.45
2018-08-23T00:18:23.099Z,23.50
2018-08-23T00:20:52.159Z,23.52
2018-08-23T00:23:21.289Z,23.53
2018-08-23T00:25:50.403Z,23.55
2018-08-23T00:28:19.535Z,23.57
2018-08-23T00:30:48.615Z,23.61
2018-08-23T00:33:17.710Z,23.49
2018-08-23T00:35:46.807Z,23.57
2018-08-23T00:38:16.070Z,23.69
2018-08-23T00:40:45.542Z,23.62
2018-08-23T00:43:14.739Z,23.29
2018-08-23T00:45:43.859Z,23.11
2018-08-23T00:48:12.958Z,22.98
2018-08-23T00:51:19.449Z,23.01
2018-08-23T00:53:53.961Z,22.91
2018-08-23T00:56:23.531Z,23.02
2018-08-23T00:58:57.902Z,23.05
2018-08-23T01:01:26.994Z,22.66
2018-08-23T01:03:56.170Z,22.51
2018-08-23T01:06:36.497Z,22.70
2018-08-23T01:09:07.415Z,22.81
2018-08-23T01:11:36.490Z,22.84
2018-08-23T01:14:06.459Z,22.95
2018-08-23T01:16:35.522Z,23.09
2018-08-23T01:20:10.311Z,23.16
2018-08-23T01:22:49.262Z,23.05
2018-08-23T01:25:18.333Z,22.86
2018-08-23T01:27:47.414Z,22.77
2018-08-23T01:30:21.165Z,22.77
2018-08-23T01:32:50.335Z,22.80
2018-08-23T01:35:19.509Z,22.74
2018-08-23T01:37:49.301Z,22.75
2018-08-23T01:40:18.532Z,22.70
2018-08-23T01:42:49.811Z,22.60
2018-08-23T01:45:18.937Z,22.63
2018-08-23T01:47:55.683Z,22.72
2018-08-23T01:50:25.679Z,22.56
2018-08-23T01:52:57.148Z,22.41
2018-08-23T01:55:26.665Z,22.53
2018-08-23T01:57:56.140Z,22.60
2018-08-23T02:00:29.450Z,22.46
2018-08-23T02:03:00.021Z,22.38
2018-08-23T02:05:29.161Z,22.50
2018-08-23T02:07:58.341Z,22.55
2018-08-23T02:10:27.452Z,22.49
2018-08-23T02:12:57.848Z,22.40
2018-08-23T02:15:30.389Z,22.31
2018-08-23T02:17:59.459Z,22.30
2018-08-23T02:20:28.598Z,22.31
2018-08-23T02:22:57.677Z,22.35
2018-08-23T02:25:26.738Z,22.33
2018-08-23T02:27:58.242Z,22.32
2018-08-23T02:30:39.581Z,22.25
2018-08-23T02:33:09.369Z,21.91
2018-08-23T02:35:38.477Z,21.68
2018-08-23T02:38:08.111Z,21.66
2018-08-23T02:40:38.789Z,21.70
2018-08-23T02:43:07.855Z,21.75
2018-08-23T02:45:42.345Z,21.50
2018-08-23T02:48:11.403Z,21.43
2018-08-23T02:50:40.517Z,21.56
2018-08-23T02:53:26.225Z,21.66
2018-08-23T02:55:55.655Z,21.73
2018-08-23T02:58:25.621Z,21.80
2018-08-23T03:00:54.837Z,21.80
2018-08-23T03:03:23.902Z,21.82
2018-08-23T03:05:53.022Z,21.83
2018-08-23T03:08:45.410Z,21.88
2018-08-23T03:11:14.530Z,21.99
2018-08-23T03:13:44.352Z,21.95
2018-08-23T03:16:13.494Z,21.93
2018-08-23T03:18:42.540Z,21.91
2018-08-23T03:21:11.628Z,21.88
2018-08-23T03:23:41.617Z,21.72
2018-08-23T03:26:10.748Z,21.73
2018-08-23T03:28:39.813Z,21.73
2018-08-23T03:31:09.191Z,21.80
2018-08-23T03:33:38.255Z,21.86
2018-08-23T03:36:07.357Z,21.73
2018-08-23T03:38:36.560Z,21.65
2018-08-23T03:41:06.357Z,21.58
2018-08-23T03:43:35.428Z,21.61
2018-08-23T03:46:04.984Z,21.65
2018-08-23T03:48:34.088Z,21.71
2018-08-23T03:51:03.182Z,21.56
2018-08-23T03:53:45.468Z,21.37
2018-08-23T03:56:16.179Z,21.30
2018-08-23T03:58:45.372Z,21.36
2018-08-23T04:01:14.759Z,21.50
2018-08-23T04:03:43.874Z,21.53
2018-08-23T04:06:33.511Z,21.56
2018-08-23T04:09:02.599Z,21.49
2018-08-23T04:11:31.710Z,21.56
2018-08-23T04:14:00.854Z,21.47
2018-08-23T04:16:31.070Z,21.52
2018-08-23T04:19:00.166Z,21.54
2018-08-23T04:21:30.485Z,21.52
2018-08-23T04:23:59.604Z,21.51
2018-08-23T04:26:29.064Z,21.51
2018-08-23T04:28:58.178Z,21.43
2018-08-23T04:31:27.249Z,21.41
2018-08-23T04:33:56.382Z,21.40
2018-08-23T04:36:30.144Z,21.44
2018-08-23T04:39:06.749Z,21.28
2018-08-23T04:41:36.845Z,21.39
2018-08-23T04:44:11.334Z,21.44
2018-08-23T04:46:40.630Z,21.26
2018-08-23T04:49:09.777Z,21.35
2018-08-23T04:51:39.496Z,21.44
2018-08-23T04:54:08.607Z,21.45
2018-08-23T04:56:37.687Z,21.46
2018-08-23T04:59:06.809Z,21.48
2018-08-23T05:01:36.601Z,21.50
2018-08-23T05:04:06.882Z,21.56
2018-08-23T05:06:36.050Z,21.55
2018-08-23T05:09:08.176Z,21.70
2018-08-23T05:11:37.273Z,21.66
2018-08-23T05:14:06.416Z,21.64
2018-08-23T05:16:35.781Z,21.56
2018-08-23T05:19:05.494Z,21.58
2018-08-23T05:21:34.630Z,21.57
2018-08-23T05:24:12.286Z,21.60
2018-08-23T05:26:41.766Z,21.57
2018-08-23T05:29:10.967Z,21.56
2018-08-23T05:31:40.193Z,21.67
2018-08-23T05:34:09.906Z,21.90
2018-08-23T05:36:39.170Z,22.02
2018-08-23T05:39:08.983Z,22.02
2018-08-23T05:41:39.097Z,22.12
2018-08-23T05:44:14.550Z,22.30
2018-08-23T05:46:48.659Z,22.28
2018-08-23T05:49:17.855Z,22.23
2018-08-23T05:51:46.935Z,22.08
2018-08-23T05:54:16.096Z,22.24
2018-08-23T05:56:45.153Z,22.45
2018-08-23T05:59:15.658Z,22.38
2018-08-23T06:01:45.597Z,22.45
2018-08-23T06:04:14.974Z,22.52
2018-08-23T06:06:44.096Z,22.48
2018-08-23T06:09:16.368Z,22.56
2018-08-23T06:11:45.551Z,22.66
2018-08-23T06:14:15.051Z,22.74
2018-08-23T06:16:54.218Z,22.68
2018-08-23T06:19:23.642Z,22.78
2018-08-23T06:21:52.762Z,22.84
2018-08-23T06:24:21.926Z,22.86
2018-08-23T06:26:52.957Z,22.91
2018-08-23T06:29:28.119Z,23.03
2018-08-23T06:32:10.201Z,23.06
2018-08-23T06:34:42.354Z,23.09
2018-08-23T06:37:11.480Z,23.06
2018-08-23T06:39:41.051Z,23.06
2018-08-23T06:42:10.120Z,23.09
2018-08-23T06:44:44.665Z,23.30
2018-08-23T06:47:17.837Z,23.45
2018-08-23T06:49:48.085Z,23.57
2018-08-23T06:53:01.295Z,23.64
2018-08-23T06:55:34.124Z,24.01
2018-08-23T06:58:04.041Z,24.30
2018-08-23T07:00:33.555Z,24.41
2018-08-23T07:03:04.816Z,24.42
2018-08-23T07:05:33.974Z,24.50
2018-08-23T07:08:03.062Z,24.50
2018-08-23T07:10:32.262Z,24.63
2018-08-23T07:13:01.449Z,24.65
2018-08-23T07:15:30.599Z,24.79
2018-08-23T07:18:03.680Z,24.86
2018-08-23T07:20:33.056Z,24.92
2018-08-23T07:23:02.222Z,25.00
2018-08-23T07:25:35.665Z,24.99
2018-08-23T07:28:04.817Z,25.08
2018-08-23T07:30:34.011Z,25.14
2018-08-23T07:33:03.119Z,25.25
2018-08-23T07:35:32.173Z,25.08
2018-08-23T07:38:01.277Z,25.17
2018-08-23T07:40:30.484Z,25.25
2018-08-23T07:42:59.572Z,25.32
2018-08-23T07:45:28.687Z,25.26
2018-08-23T07:47:57.801Z,25.11
2018-08-23T07:50:26.969Z,24.90
2018-08-23T07:52:56.096Z,24.83
2018-08-23T07:55:25.381Z,24.88
2018-08-23T07:57:54.482Z,24.93
2018-08-23T08:00:32.884Z,24.92
2018-08-23T08:03:01.994Z,24.94
2018-08-23T08:05:33.290Z,24.97
2018-08-23T08:08:02.665Z,24.98
2018-08-23T08:10:33.006Z,24.97
2018-08-23T08:13:02.277Z,24.97
2018-08-23T08:15:31.966Z,25.12
2018-08-23T08:18:07.710Z,25.35
2018-08-23T08:20:36.786Z,25.38
2018-08-23T08:23:05.988Z,25.40
2018-08-23T08:25:35.082Z,25.47
2018-08-23T08:28:04.276Z,25.60
2018-08-23T08:30:41.394Z,25.55
2018-08-23T08:33:12.864Z,25.52
2018-08-23T08:35:42.969Z,25.55
2018-08-23T08:38:12.258Z,25.40
2018-08-23T08:40:41.784Z,25.37
2018-08-23T08:43:11.322Z,25.57
2018-08-23T08:45:40.390Z,25.70
2018-08-23T08:48:19.833Z,25.71
2018-08-23T08:51:05.579Z,25.65
2018-08-23T08:53:37.277Z,25.62
2018-08-23T08:56:06.715Z,25.65
2018-08-23T08:58:35.903Z,25.80
2018-08-23T09:01:05.152Z,26.02
2018-08-23T09:03:35.739Z,26.15
2018-08-23T09:06:07.739Z,26.19
2018-08-23T09:08:37.752Z,26.16
2018-08-23T09:11:07.134Z,26.33
2018-08-23T09:13:41.518Z,26.44
2018-08-23T09:16:11.498Z,26.61
2018-08-23T09:18:42.477Z,26.55
2018-08-23T09:21:11.546Z,26.64
2018-08-23T09:23:40.874Z,26.71
2018-08-23T09:26:09.931Z,26.86
2018-08-23T09:28:39.161Z,27.08
2018-08-23T09:31:08.288Z,27.26
2018-08-23T09:33:37.553Z,27.44
2018-08-23T09:36:07.460Z,27.45
2018-08-23T09:38:36.668Z,27.53
2018-08-23T09:41:06.466Z,27.77
2018-08-23T09:43:35.738Z,27.68
2018-08-23T09:46:05.925Z,27.94
2018-08-23T09:48:35.160Z,28.12
2018-08-23T09:51:10.836Z,28.29
2018-08-23T09:53:40.028Z,28.40
2018-08-23T09:56:13.538Z,28.56
2018-08-23T09:58:43.130Z,28.70
2018-08-23T10:01:17.592Z,28.84
2018-08-23T10:03:51.795Z,28.86
2018-08-23T10:06:21.803Z,29.06
2018-08-23T10:09:02.088Z,29.27
2018-08-23T10:11:36.497Z,29.43
2018-08-23T10:14:10.883Z,29.40
2018-08-23T10:16:48.562Z,29.40
2018-08-23T10:19:23.036Z,29.57
2018-08-23T10:21:57.496Z,29.48
2018-08-23T10:24:26.604Z,29.64
2018-08-23T10:26:55.748Z,29.65
2018-08-23T10:29:26.094Z,29.64
2018-08-23T10:31:55.277Z,29.60
2018-08-23T10:34:24.678Z,29.76
2018-08-23T10:36:53.905Z,29.82
2018-08-23T10:39:23.538Z,29.96
2018-08-23T10:41:52.629Z,30.13
2018-08-23T10:44:21.970Z,30.17
2018-08-23T10:46:56.169Z,30.23
2018-08-23T10:49:27.962Z,30.39
2018-08-23T10:51:57.339Z,30.50
2018-08-23T10:54:26.558Z,30.62
2018-08-23T10:56:55.734Z,30.55
2018-08-23T10:59:25.873Z,30.31
2018-08-23T11:01:54.986Z,30.21
2018-08-23T11:04:25.213Z,30.12
2018-08-23T11:06:58.193Z,30.14
2018-08-23T11:09:39.412Z,30.05
2018-08-23T11:12:13.196Z,30.02
2018-08-23T11:14:42.308Z,30.13
2018-08-23T11:17:16.930Z,30.33
2018-08-23T11:19:51.381Z,30.60
2018-08-23T11:22:24.097Z,30.72
2018-08-23T11:24:53.562Z,30.87
2018-08-23T11:27:22.675Z,30.92
2018-08-23T11:29:52.054Z,31.06
2018-08-23T11:32:21.156Z,31.14
2018-08-23T11:34:50.433Z,31.17
2018-08-23T11:37:19.494Z,31.07
2018-08-23T11:39:48.557Z,31.19
2018-08-23T11:42:17.719Z,31.45
2018-08-23T11:44:46.814Z,31.60
2018-08-23T11:47:15.882Z,31.66
2018-08-23T11:49:45.052Z,31.63
2018-08-23T11:52:14.228Z,31.72
2018-08-23T11:54:43.735Z,31.71
2018-08-23T11:57:12.856Z,31.71
2018-08-23T11:59:42.051Z,31.74
2018-08-23T12:02:11.139Z,31.78
2018-08-23T12:04:40.252Z,31.80
2018-08-23T12:07:09.736Z,31.87
2018-08-23T12:09:38.970Z,32.05
2018-08-23T12:12:08.110Z,32.27
2018-08-23T12:14:37.714Z,32.22
2018-08-23T12:17:07.002Z,32.29
2018-08-23T12:19:36.426Z,32.34
2018-08-23T12:22:06.201Z,32.30
2018-08-23T12:24:35.314Z,32.36
2018-08-23T12:27:04.466Z,32.41
2018-08-23T12:29:34.325Z,32.40
2018-08-23T12:32:03.427Z,32.51
2018-08-23T12:34:35.269Z,32.69
2018-08-23T12:37:10.638Z,32.73
2018-08-23T12:39:45.138Z,32.85
2018-08-23T12:42:19.602Z,32.92
2018-08-23T12:44:52.529Z,32.93
2018-08-23T12:47:22.051Z,33.16
2018-08-23T12:49:51.265Z,33.26
2018-08-23T12:52:20.637Z,33.46
2018-08-23T12:54:49.772Z,33.63
2018-08-23T12:57:18.971Z,33.20
2018-08-23T12:59:48.100Z,33.23
2018-08-23T13:02:17.255Z,33.46
2018-08-23T13:04:46.266Z,33.26
2018-08-23T13:07:15.386Z,33.50
2018-08-23T13:09:44.824Z,33.92
2018-08-23T13:12:13.917Z,34.43
2018-08-23T13:14:43.509Z,34.55
2018-08-23T13:17:12.910Z,34.23
2018-08-23T13:19:42.310Z,34.09
2018-08-23T13:22:11.379Z,34.21
2018-08-23T13:24:45.656Z,34.43
2018-08-23T13:27:14.737Z,34.68
2018-08-23T13:29:43.934Z,34.59
2018-08-23T13:32:12.946Z,34.75
2018-08-23T13:34:42.010Z,34.73
2018-08-23T13:37:11.166Z,34.57
2018-08-23T13:39:40.242Z,34.09
2018-08-23T13:42:09.359Z,33.95
2018-08-23T13:44:38.549Z,34.46
2018-08-23T13:47:07.609Z,34.71
2018-08-23T13:49:36.793Z,34.93
2018-08-23T13:52:06.387Z,35.19
2018-08-23T13:54:35.536Z,35.03
2018-08-23T13:57:04.561Z,35.34
2018-08-23T13:59:33.782Z,35.61
2018-08-23T14:02:04.041Z,35.86
2018-08-23T14:04:33.107Z,35.85
2018-08-23T14:07:02.510Z,35.59
2018-08-23T14:09:31.696Z,35.70
2018-08-23T14:12:00.896Z,36.03
2018-08-23T14:14:30.745Z,35.88
2018-08-23T14:17:00.531Z,36.17
2018-08-23T14:19:29.609Z,36.01
2018-08-23T14:24:33.940Z,36.28
2018-08-23T14:27:03.120Z,36.42
2018-08-23T14:29:32.142Z,36.60
2018-08-23T14:32:01.227Z,36.57
2018-08-23T14:34:30.336Z,36.90
2018-08-23T14:36:59.531Z,36.96
2018-08-23T14:39:28.638Z,37.04
2018-08-23T14:41:57.726Z,37.36
2018-08-23T14:44:26.886Z,37.74
2018-08-23T14:47:01.402Z,38.00
2018-08-23T14:49:34.561Z,36.79
2018-08-23T14:52:04.537Z,37.70
2018-08-23T14:54:40.438Z,37.94
2018-08-23T14:57:14.897Z,37.81
2018-08-23T14:59:44.706Z,37.70
2018-08-23T15:02:14.015Z,37.57
2018-08-23T15:04:48.276Z,37.77
2018-08-23T15:07:18.203Z,37.95
2018-08-23T15:09:47.550Z,37.59
2018-08-23T15:12:16.601Z,37.13
2018-08-23T15:14:45.748Z,36.94
2018-08-23T15:17:14.862Z,37.03
2018-08-23T15:19:43.941Z,37.05
2018-08-23T15:22:13.086Z,37.04
2018-08-23T15:24:42.176Z,37.29
2018-08-23T15:27:11.392Z,37.34
2018-08-23T15:29:40.391Z,37.49
2018-08-23T15:32:09.446Z,37.55
2018-08-23T15:34:38.512Z,37.49
2018-08-23T15:37:07.565Z,37.88
2018-08-23T15:39:36.795Z,38.07
2018-08-23T15:42:06.974Z,38.18
2018-08-23T15:44:36.026Z,38.15
2018-08-23T15:47:05.214Z,38.38
2018-08-23T15:49:34.297Z,38.28
2018-08-23T15:52:04.407Z,38.04
2018-08-23T15:54:33.523Z,38.15
2018-08-23T15:57:02.614Z,38.32
2018-08-23T15:59:33.594Z,38.33
2018-08-23T16:02:02.666Z,38.00
2018-08-23T16:04:31.799Z,38.33
2018-08-23T16:07:00.926Z,38.30
2018-08-23T16:09:30.672Z,38.10
2018-08-23T16:11:59.731Z,37.33
2018-08-23T16:14:28.774Z,37.32
2018-08-23T16:17:03.170Z,37.47
2018-08-23T16:19:37.417Z,37.79
2018-08-23T16:22:06.614Z,37.77
2018-08-23T16:24:36.114Z,37.52
2018-08-23T16:27:06.505Z,36.93
2018-08-23T16:29:35.628Z,36.30
2018-08-23T16:32:06.114Z,36.09
2018-08-23T16:34:35.258Z,35.70
2018-08-23T16:37:04.349Z,35.36
2018-08-23T16:39:33.428Z,35.14
2018-08-23T16:42:02.497Z,34.88
2018-08-23T16:44:31.546Z,35.00
2018-08-23T16:47:00.623Z,34.78
2018-08-23T16:49:30.334Z,34.39
2018-08-23T16:51:59.636Z,34.39
2018-08-23T16:54:28.799Z,34.27
2018-08-23T16:56:57.830Z,34.35
2018-08-23T16:59:27.056Z,34.28
2018-08-23T17:01:56.310Z,34.10
2018-08-23T17:04:30.835Z,33.81
2018-08-23T17:06:59.899Z,33.73
2018-08-23T17:09:29.105Z,33.67
2018-08-23T17:11:58.213Z,33.64
2018-08-23T17:14:27.295Z,33.36
2018-08-23T17:17:01.799Z,33.22
2018-08-23T17:19:30.905Z,32.73
2018-08-23T17:21:59.966Z,32.34
2018-08-23T17:24:29.102Z,32.11
2018-08-23T17:26:58.115Z,31.92
2018-08-23T17:29:27.184Z,31.11
2018-08-23T17:31:56.265Z,30.36
2018-08-23T17:34:25.350Z,30.48
2018-08-23T17:36:54.403Z,30.37
2018-08-23T17:39:23.509Z,30.11
2018-08-23T17:41:52.580Z,30.07
2018-08-23T17:44:21.692Z,29.97
2018-08-23T17:46:51.055Z,29.89
2018-08-23T17:49:20.155Z,30.08
2018-08-23T17:51:49.209Z,30.26
2018-08-23T17:54:18.330Z,30.37
2018-08-23T17:56:47.382Z,30.45
2018-08-23T17:59:16.491Z,30.40
2018-08-23T18:01:45.547Z,30.30
2018-08-23T18:04:14.621Z,30.22
2018-08-23T18:06:43.787Z,30.09
2018-08-23T18:09:13.878Z,29.89
2018-08-23T18:11:42.993Z,29.88
2018-08-23T18:14:12.046Z,29.82
2018-08-23T18:16:46.547Z,29.85
2018-08-23T18:19:15.674Z,29.84
2018-08-23T18:21:44.806Z,29.95
2018-08-23T18:24:13.914Z,29.87
2018-08-23T18:26:43.024Z,29.83
2018-08-23T18:29:12.095Z,29.53
2018-08-23T18:31:41.175Z,29.45
2018-08-23T18:34:10.232Z,29.29
2018-08-23T18:36:39.362Z,29.27
2018-08-23T18:39:09.186Z,29.16
2018-08-23T18:41:38.364Z,28.55
2018-08-23T18:44:07.675Z,28.80
2018-08-23T18:46:36.759Z,29.16
2018-08-23T18:49:06.279Z,29.41
2018-08-23T18:51:36.006Z,29.46
2018-08-23T18:54:05.856Z,29.11
2018-08-23T18:56:34.896Z,29.04
2018-08-23T18:59:03.959Z,28.87
2018-08-23T19:01:33.099Z,28.78
2018-08-23T19:04:02.188Z,28.53
2018-08-23T19:06:34.140Z,27.98
2018-08-23T19:09:12.228Z,27.41
2018-08-23T19:11:42.253Z,26.75
2018-08-23T19:14:11.371Z,26.44
2018-08-23T19:16:45.701Z,26.64
2018-08-23T19:19:14.908Z,26.75
2018-08-23T19:21:43.983Z,26.25
2018-08-23T19:24:13.093Z,25.96
2018-08-23T19:26:42.234Z,26.23
2018-08-23T19:29:11.347Z,26.66
2018-08-23T19:31:40.558Z,26.57
2018-08-23T19:34:09.662Z,26.50
2018-08-23T19:36:39.107Z,26.39
2018-08-23T19:39:11.795Z,26.33
2018-08-23T19:41:41.514Z,26.28
2018-08-23T19:44:10.783Z,26.35
2018-08-23T19:46:45.127Z,26.18
2018-08-23T19:49:19.856Z,25.84
2018-08-23T19:51:48.966Z,25.85
2018-08-23T19:54:18.141Z,25.56
2018-08-23T19:56:47.241Z,25.48
2018-08-23T19:59:16.366Z,25.24
2018-08-23T20:01:45.507Z,25.23
2018-08-23T20:04:14.603Z,25.06
2018-08-23T20:06:43.743Z,25.11
2018-08-23T20:09:13.039Z,25.16
2018-08-23T20:11:42.160Z,25.21
2018-08-23T20:14:11.215Z,25.16
2018-08-23T20:16:40.302Z,25.15
2018-08-23T20:19:09.402Z,24.90
2018-08-23T20:21:38.478Z,24.73
2018-08-23T20:24:08.338Z,24.86
2018-08-23T20:26:37.383Z,24.83
2018-08-23T20:29:06.598Z,24.63
2018-08-23T20:31:36.276Z,24.60
2018-08-23T20:34:06.258Z,24.61
2018-08-23T20:36:35.357Z,24.67
2018-08-23T20:39:08.881Z,24.70
2018-08-23T20:41:37.937Z,24.93
2018-08-23T20:44:07.138Z,24.71
2018-08-23T20:46:36.401Z,24.74
2018-08-23T20:49:06.086Z,24.80
2018-08-23T20:51:35.520Z,24.91
2018-08-23T20:54:06.098Z,24.91
2018-08-23T20:56:35.243Z,24.79
2018-08-23T20:59:04.444Z,24.74
2018-08-23T21:01:33.523Z,24.73
2018-08-23T21:04:03.012Z,24.52
2018-08-23T21:06:32.090Z,24.57
2018-08-23T21:09:01.158Z,24.59
2018-08-23T21:11:30.246Z,24.38
2018-08-23T21:13:59.310Z,24.32
2018-08-23T21:16:28.400Z,24.37
2018-08-23T21:18:57.461Z,24.43
2018-08-23T21:21:26.579Z,24.36
2018-08-23T21:23:55.678Z,24.36
2018-08-23T21:26:24.743Z,24.29
2018-08-23T21:28:54.213Z,24.14
2018-08-23T21:31:23.294Z,23.99
2018-08-23T21:33:52.876Z,24.66
2018-08-23T21:36:22.015Z,25.53
2018-08-23T21:38:51.461Z,25.29
2018-08-23T21:41:20.577Z,24.82
2018-08-23T21:43:49.720Z,24.58
2018-08-23T21:46:18.760Z,24.44
2018-08-23T21:48:47.889Z,24.16
2018-08-23T21:51:17.247Z,24.10
2018-08-23T21:53:46.455Z,24.15
2018-08-23T21:56:15.588Z,24.09
2018-08-23T21:58:44.794Z,24.00
2018-08-23T22:01:13.901Z,24.03
2018-08-23T22:03:43.027Z,24.16
2018-08-23T22:06:12.133Z,24.13
2018-08-23T22:08:41.435Z,23.90
2018-08-23T22:11:10.533Z,23.96
2018-08-23T22:13:40.102Z,22.45
2018-08-23T22:16:09.164Z,23.90
2018-08-23T22:18:38.308Z,23.91
2018-08-23T22:21:07.409Z,23.75
2018-08-23T22:23:36.495Z,23.68
2018-08-23T22:31:03.972Z,23.52
2018-08-23T22:33:33.108Z,23.47
2018-08-23T22:36:02.226Z,23.52
2018-08-23T22:38:31.323Z,23.50
2018-08-23T22:41:00.422Z,23.43
2018-08-23T22:43:29.682Z,23.44
2018-08-23T22:45:58.758Z,23.48
2018-08-23T22:48:27.851Z,23.50
2018-08-23T22:50:56.925Z,23.30
2018-08-23T22:53:25.985Z,23.23
2018-08-23T22:55:55.122Z,23.19
2018-08-23T22:58:24.892Z,23.29
2018-08-23T23:00:54.128Z,23.22
2018-08-23T23:03:28.499Z,23.12
2018-08-23T23:05:57.557Z,23.37
2018-08-23T23:08:26.712Z,23.45
2018-08-23T23:10:55.807Z,23.55
2018-08-23T23:13:24.914Z,23.46
2018-08-23T23:15:54.022Z,23.61
2018-08-23T23:18:23.185Z,23.60
2018-08-23T23:20:52.296Z,23.44
2018-08-23T23:23:21.696Z,23.36
2018-08-23T23:25:50.802Z,23.26
2018-08-23T23:28:21.914Z,23.16
2018-08-23T23:30:51.023Z,22.94
2018-08-23T23:33:20.312Z,22.89
2018-08-23T23:35:49.436Z,22.99
2018-08-23T23:38:18.613Z,22.90
2018-08-23T23:40:47.761Z,23.00
2018-08-23T23:43:16.842Z,23.02
2018-08-23T23:45:45.921Z,22.88
2018-08-23T23:48:15.025Z,22.89
2018-08-23T23:50:44.162Z,22.77
2018-08-23T23:53:13.306Z,22.77
2018-08-23T23:55:42.403Z,22.82
2018-08-23T23:58:11.501Z,22.83
